sensor_id;sensor_type;location;lat;lon;timestamp;temperature;humidity
30037;DHT22;36325;51.512;-0.382;2023-06-14T00:01:37;17.40;92.50
30037;DHT22;36325;51.512;-0.382;2023-06-14T00:04:05;17.30;91.40
30037;DHT22;36325;51.512;-0.382;2023-06-14T00:06:32;17.30;91.30
30037;DHT22;36325;51.512;-0.382;2023-06-14T00:09:01;17.20;91.20
30037;DHT22;36325;51.512;-0.382;2023-06-14T00:11:28;17.10;90.90
30037;DHT22;36325;51.512;-0.382;2023-06-14T00:13:57;17.00;90.40
30037;DHT22;36325;51.512;-0.382;2023-06-14T00:16:25;16.90;90.70
30037;DHT22;36325;51.512;-0.382;2023-06-14T00:18:53;16.80;88.20
30037;DHT22;36325;51.512;-0.382;2023-06-14T00:21:20;16.70;87.50
30037;DHT22;36325;51.512;-0.382;2023-06-14T00:23:48;16.70;88.20
30037;DHT22;36325;51.512;-0.382;2023-06-14T00:26:16;16.60;88.80
30037;DHT22;36325;51.512;-0.382;2023-06-14T00:28:44;16.60;89.50
30037;DHT22;36325;51.512;-0.382;2023-06-14T00:31:11;16.50;89.60
30037;DHT22;36325;51.512;-0.382;2023-06-14T00:33:39;16.40;89.10
30037;DHT22;36325;51.512;-0.382;2023-06-14T00:36:06;16.30;88.30
30037;DHT22;36325;51.512;-0.382;2023-06-14T00:38:33;16.20;87.80
30037;DHT22;36325;51.512;-0.382;2023-06-14T00:41:01;16.10;87.60
30037;DHT22;36325;51.512;-0.382;2023-06-14T00:45:58;16.00;87.40
30037;DHT22;36325;51.512;-0.382;2023-06-14T00:50:54;15.90;88.30
30037;DHT22;36325;51.512;-0.382;2023-06-14T00:55:52;15.80;91.90
30037;DHT22;36325;51.512;-0.382;2023-06-14T00:58:21;15.70;93.40
30037;DHT22;36325;51.512;-0.382;2023-06-14T01:00:49;15.60;94.50
30037;DHT22;36325;51.512;-0.382;2023-06-14T01:03:18;15.60;96.10
30037;DHT22;36325;51.512;-0.382;2023-06-14T01:05:59;15.40;97.10
30037;DHT22;36325;51.512;-0.382;2023-06-14T01:08:47;15.30;97.70
30037;DHT22;36325;51.512;-0.382;2023-06-14T01:11:26;15.30;98.00
30037;DHT22;36325;51.512;-0.382;2023-06-14T01:13:56;15.20;98.30
30037;DHT22;36325;51.512;-0.382;2023-06-14T01:16:24;15.10;98.90
30037;DHT22;36325;51.512;-0.382;2023-06-14T01:18:53;12.40;98.20
30037;DHT22;36325;51.512;-0.382;2023-06-14T01:21:24;15.00;99.90
30037;DHT22;36325;51.512;-0.382;2023-06-14T01:23:52;15.00;99.90
30037;DHT22;36325;51.512;-0.382;2023-06-14T01:26:21;14.90;99.90
30037;DHT22;36325;51.512;-0.382;2023-06-14T01:28:51;14.90;99.90
30037;DHT22;36325;51.512;-0.382;2023-06-14T01:31:23;14.80;99.90
30037;DHT22;36325;51.512;-0.382;2023-06-14T01:33:51;14.70;99.90
30037;DHT22;36325;51.512;-0.382;2023-06-14T01:36:19;14.70;99.90
30037;DHT22;36325;51.512;-0.382;2023-06-14T01:38:48;14.40;99.90
30037;DHT22;36325;51.512;-0.382;2023-06-14T01:41:19;14.60;99.90
30037;DHT22;36325;51.512;-0.382;2023-06-14T01:43:48;14.50;99.90
30037;DHT22;36325;51.512;-0.382;2023-06-14T01:48:46;14.40;99.90
30037;DHT22;36325;51.512;-0.382;2023-06-14T01:51:13;14.40;99.90
30037;DHT22;36325;51.512;-0.382;2023-06-14T01:53:41;14.40;99.90
30037;DHT22;36325;51.512;-0.382;2023-06-14T01:56:10;14.30;99.90
30037;DHT22;36325;51.512;-0.382;2023-06-14T01:58:37;14.30;99.90
30037;DHT22;36325;51.512;-0.382;2023-06-14T02:01:04;14.30;99.90
30037;DHT22;36325;51.512;-0.382;2023-06-14T02:03:32;14.20;99.90
30037;DHT22;36325;51.512;-0.382;2023-06-14T02:05:59;14.20;99.90
30037;DHT22;36325;51.512;-0.382;2023-06-14T02:08:27;14.20;99.90
30037;DHT22;36325;51.512;-0.382;2023-06-14T02:10:54;14.10;99.90
30037;DHT22;36325;51.512;-0.382;2023-06-14T02:13:21;14.10;99.90
30037;DHT22;36325;51.512;-0.382;2023-06-14T02:15:50;14.10;99.90
30037;DHT22;36325;51.512;-0.382;2023-06-14T02:18:22;14.00;99.90
30037;DHT22;36325;51.512;-0.382;2023-06-14T02:20:49;14.00;99.90
30037;DHT22;36325;51.512;-0.382;2023-06-14T02:25:44;13.90;99.90
30037;DHT22;36325;51.512;-0.382;2023-06-14T02:28:13;13.90;99.90
30037;DHT22;36325;51.512;-0.382;2023-06-14T02:30:40;13.90;99.90
30037;DHT22;36325;51.512;-0.382;2023-06-14T02:33:07;13.90;99.90
30037;DHT22;36325;51.512;-0.382;2023-06-14T02:35:35;13.80;99.90
30037;DHT22;36325;51.512;-0.382;2023-06-14T02:38:07;13.80;99.90
30037;DHT22;36325;51.512;-0.382;2023-06-14T02:40:40;13.70;99.90
30037;DHT22;36325;51.512;-0.382;2023-06-14T02:43:09;13.70;99.90
30037;DHT22;36325;51.512;-0.382;2023-06-14T02:45:38;13.70;99.90
30037;DHT22;36325;51.512;-0.382;2023-06-14T02:48:05;13.70;99.90
30037;DHT22;36325;51.512;-0.382;2023-06-14T02:50:33;13.60;99.90
30037;DHT22;36325;51.512;-0.382;2023-06-14T02:55:30;13.60;99.90
30037;DHT22;36325;51.512;-0.382;2023-06-14T03:00:28;13.50;99.90
30037;DHT22;36325;51.512;-0.382;2023-06-14T03:02:57;13.40;99.90
30037;DHT22;36325;51.512;-0.382;2023-06-14T03:05:25;13.40;99.90
30037;DHT22;36325;51.512;-0.382;2023-06-14T03:07:55;13.40;99.90
30037;DHT22;36325;51.512;-0.382;2023-06-14T03:10:23;13.30;99.90
30037;DHT22;36325;51.512;-0.382;2023-06-14T03:15:21;13.20;99.90
30037;DHT22;36325;51.512;-0.382;2023-06-14T03:17:51;13.20;99.90
30037;DHT22;36325;51.512;-0.382;2023-06-14T03:22:48;13.10;99.90
30037;DHT22;36325;51.512;-0.382;2023-06-14T03:25:16;13.10;99.90
30037;DHT22;36325;51.512;-0.382;2023-06-14T03:27:45;13.00;99.90
30037;DHT22;36325;51.512;-0.382;2023-06-14T03:30:13;13.00;99.90
30037;DHT22;36325;51.512;-0.382;2023-06-14T03:32:43;13.00;99.90
30037;DHT22;36325;51.512;-0.382;2023-06-14T03:35:10;13.00;99.90
30037;DHT22;36325;51.512;-0.382;2023-06-14T03:37:46;13.00;99.90
30037;DHT22;36325;51.512;-0.382;2023-06-14T03:40:17;12.90;99.90
30037;DHT22;36325;51.512;-0.382;2023-06-14T03:42:49;13.00;99.90
30037;DHT22;36325;51.512;-0.382;2023-06-14T03:45:16;12.90;99.90
30037;DHT22;36325;51.512;-0.382;2023-06-14T03:47:43;12.90;99.90
30037;DHT22;36325;51.512;-0.382;2023-06-14T03:52:39;12.90;99.90
30037;DHT22;36325;51.512;-0.382;2023-06-14T03:55:10;12.80;99.90
30037;DHT22;36325;51.512;-0.382;2023-06-14T03:57:43;12.80;99.90
30037;DHT22;36325;51.512;-0.382;2023-06-14T04:00:14;12.80;99.90
30037;DHT22;36325;51.512;-0.382;2023-06-14T04:02:43;12.80;99.90
30037;DHT22;36325;51.512;-0.382;2023-06-14T04:05:11;12.70;99.90
30037;DHT22;36325;51.512;-0.382;2023-06-14T04:07:44;12.80;99.90
30037;DHT22;36325;51.512;-0.382;2023-06-14T04:10:12;12.80;99.90
30037;DHT22;36325;51.512;-0.382;2023-06-14T04:12:41;12.70;99.90
30037;DHT22;36325;51.512;-0.382;2023-06-14T04:15:10;12.80;99.90
30037;DHT22;36325;51.512;-0.382;2023-06-14T04:17:46;12.80;99.90
30037;DHT22;36325;51.512;-0.382;2023-06-14T04:20:15;12.80;99.90
30037;DHT22;36325;51.512;-0.382;2023-06-14T04:22:44;12.80;99.90
30037;DHT22;36325;51.512;-0.382;2023-06-14T04:25:11;12.80;99.90
30037;DHT22;36325;51.512;-0.382;2023-06-14T04:30:10;12.90;99.90
30037;DHT22;36325;51.512;-0.382;2023-06-14T04:32:45;12.90;99.90
30037;DHT22;36325;51.512;-0.382;2023-06-14T04:35:13;12.90;99.90
30037;DHT22;36325;51.512;-0.382;2023-06-14T04:37:43;13.00;99.90
30037;DHT22;36325;51.512;-0.382;2023-06-14T04:40:12;13.00;99.90
30037;DHT22;36325;51.512;-0.382;2023-06-14T04:42:40;13.00;99.90
30037;DHT22;36325;51.512;-0.382;2023-06-14T04:47:44;13.10;99.90
30037;DHT22;36325;51.512;-0.382;2023-06-14T04:50:13;13.20;99.90
30037;DHT22;36325;51.512;-0.382;2023-06-14T04:52:40;13.20;99.90
30037;DHT22;36325;51.512;-0.382;2023-06-14T04:55:09;13.30;99.90
30037;DHT22;36325;51.512;-0.382;2023-06-14T04:57:39;13.30;99.90
30037;DHT22;36325;51.512;-0.382;2023-06-14T05:00:10;13.30;99.90
30037;DHT22;36325;51.512;-0.382;2023-06-14T05:02:39;13.40;99.90
30037;DHT22;36325;51.512;-0.382;2023-06-14T05:05:08;13.50;99.90
30037;DHT22;36325;51.512;-0.382;2023-06-14T05:07:35;13.60;99.90
30037;DHT22;36325;51.512;-0.382;2023-06-14T05:10:05;13.50;99.90
30037;DHT22;36325;51.512;-0.382;2023-06-14T05:12:32;13.60;99.90
30037;DHT22;36325;51.512;-0.382;2023-06-14T05:15:02;13.70;99.90
30037;DHT22;36325;51.512;-0.382;2023-06-14T05:17:30;13.80;99.90
30037;DHT22;36325;51.512;-0.382;2023-06-14T05:19:57;13.80;99.90
30037;DHT22;36325;51.512;-0.382;2023-06-14T05:22:24;13.90;99.90
30037;DHT22;36325;51.512;-0.382;2023-06-14T05:24:52;13.90;99.90
30037;DHT22;36325;51.512;-0.382;2023-06-14T05:27:20;14.00;99.90
30037;DHT22;36325;51.512;-0.382;2023-06-14T05:29:47;14.10;99.90
30037;DHT22;36325;51.512;-0.382;2023-06-14T05:32:15;14.10;99.90
30037;DHT22;36325;51.512;-0.382;2023-06-14T05:34:43;14.10;99.90
30037;DHT22;36325;51.512;-0.382;2023-06-14T05:37:10;14.20;99.90
30037;DHT22;36325;51.512;-0.382;2023-06-14T05:39:37;14.20;99.90
30037;DHT22;36325;51.512;-0.382;2023-06-14T05:42:05;14.30;99.90
30037;DHT22;36325;51.512;-0.382;2023-06-14T05:44:33;14.40;99.90
30037;DHT22;36325;51.512;-0.382;2023-06-14T05:47:00;14.40;99.90
30037;DHT22;36325;51.512;-0.382;2023-06-14T05:49:30;14.50;99.90
30037;DHT22;36325;51.512;-0.382;2023-06-14T05:51:58;14.60;99.90
30037;DHT22;36325;51.512;-0.382;2023-06-14T05:54:25;14.70;99.90
30037;DHT22;36325;51.512;-0.382;2023-06-14T05:56:52;14.80;99.90
30037;DHT22;36325;51.512;-0.382;2023-06-14T05:59:20;14.80;99.90
30037;DHT22;36325;51.512;-0.382;2023-06-14T06:01:47;14.90;99.90
30037;DHT22;36325;51.512;-0.382;2023-06-14T06:04:15;15.00;99.90
30037;DHT22;36325;51.512;-0.382;2023-06-14T06:06:42;15.00;99.90
30037;DHT22;36325;51.512;-0.382;2023-06-14T06:09:09;15.20;99.90
30037;DHT22;36325;51.512;-0.382;2023-06-14T06:14:18;15.30;99.90
30037;DHT22;36325;51.512;-0.382;2023-06-14T06:16:45;15.40;99.90
30037;DHT22;36325;51.512;-0.382;2023-06-14T06:19:12;15.40;99.90
30037;DHT22;36325;51.512;-0.382;2023-06-14T06:21:39;15.50;99.90
30037;DHT22;36325;51.512;-0.382;2023-06-14T06:24:07;15.60;99.90
30037;DHT22;36325;51.512;-0.382;2023-06-14T06:26:35;15.70;99.90
30037;DHT22;36325;51.512;-0.382;2023-06-14T06:29:02;15.70;99.90
30037;DHT22;36325;51.512;-0.382;2023-06-14T06:33:57;16.00;99.90
30037;DHT22;36325;51.512;-0.382;2023-06-14T06:36:25;16.00;99.90
30037;DHT22;36325;51.512;-0.382;2023-06-14T06:38:52;16.10;99.90
30037;DHT22;36325;51.512;-0.382;2023-06-14T06:41:20;16.10;99.90
30037;DHT22;36325;51.512;-0.382;2023-06-14T06:43:48;16.30;99.90
30037;DHT22;36325;51.512;-0.382;2023-06-14T06:46:18;16.30;99.90
30037;DHT22;36325;51.512;-0.382;2023-06-14T06:48:47;16.40;99.90
30037;DHT22;36325;51.512;-0.382;2023-06-14T06:51:18;17.20;99.90
30037;DHT22;36325;51.512;-0.382;2023-06-14T06:53:52;16.60;99.90
30037;DHT22;36325;51.512;-0.382;2023-06-14T06:56:21;16.60;99.90
30037;DHT22;36325;51.512;-0.382;2023-06-14T06:58:50;16.90;99.90
30037;DHT22;36325;51.512;-0.382;2023-06-14T07:01:18;16.90;99.90
30037;DHT22;36325;51.512;-0.382;2023-06-14T07:03:46;17.00;99.90
30037;DHT22;36325;51.512;-0.382;2023-06-14T07:06:14;17.10;99.90
30037;DHT22;36325;51.512;-0.382;2023-06-14T07:08:41;17.20;99.90
30037;DHT22;36325;51.512;-0.382;2023-06-14T07:11:08;17.40;99.90
30037;DHT22;36325;51.512;-0.382;2023-06-14T07:13:36;17.40;99.90
30037;DHT22;36325;51.512;-0.382;2023-06-14T07:16:04;17.60;99.90
30037;DHT22;36325;51.512;-0.382;2023-06-14T07:18:31;17.70;99.90
30037;DHT22;36325;51.512;-0.382;2023-06-14T07:20:58;17.80;99.90
30037;DHT22;36325;51.512;-0.382;2023-06-14T07:23:26;18.00;99.90
30037;DHT22;36325;51.512;-0.382;2023-06-14T07:25:53;17.90;99.90
30037;DHT22;36325;51.512;-0.382;2023-06-14T07:28:21;18.10;99.90
30037;DHT22;36325;51.512;-0.382;2023-06-14T07:30:48;18.20;99.90
30037;DHT22;36325;51.512;-0.382;2023-06-14T07:33:16;18.40;99.90
30037;DHT22;36325;51.512;-0.382;2023-06-14T07:35:43;18.50;99.90
30037;DHT22;36325;51.512;-0.382;2023-06-14T07:38:10;18.60;99.90
30037;DHT22;36325;51.512;-0.382;2023-06-14T07:40:38;18.70;99.90
30037;DHT22;36325;51.512;-0.382;2023-06-14T07:43:05;18.90;99.90
30037;DHT22;36325;51.512;-0.382;2023-06-14T07:45:32;19.00;99.90
30037;DHT22;36325;51.512;-0.382;2023-06-14T07:47:59;19.10;99.90
30037;DHT22;36325;51.512;-0.382;2023-06-14T07:50:27;19.20;99.90
30037;DHT22;36325;51.512;-0.382;2023-06-14T07:52:54;19.40;99.90
30037;DHT22;36325;51.512;-0.382;2023-06-14T07:55:21;19.60;99.90
30037;DHT22;36325;51.512;-0.382;2023-06-14T07:57:49;19.80;99.90
30037;DHT22;36325;51.512;-0.382;2023-06-14T08:00:17;20.20;99.90
30037;DHT22;36325;51.512;-0.382;2023-06-14T08:02:45;20.20;99.90
30037;DHT22;36325;51.512;-0.382;2023-06-14T08:05:12;20.50;99.90
30037;DHT22;36325;51.512;-0.382;2023-06-14T08:07:40;20.90;99.90
30037;DHT22;36325;51.512;-0.382;2023-06-14T08:10:08;21.10;99.90
30037;DHT22;36325;51.512;-0.382;2023-06-14T08:12:35;21.10;99.90
30037;DHT22;36325;51.512;-0.382;2023-06-14T08:15:04;21.30;99.90
30037;DHT22;36325;51.512;-0.382;2023-06-14T08:17:34;21.60;99.90
30037;DHT22;36325;51.512;-0.382;2023-06-14T08:20:02;21.90;99.90
30037;DHT22;36325;51.512;-0.382;2023-06-14T08:22:31;22.10;99.90
30037;DHT22;36325;51.512;-0.382;2023-06-14T08:25:01;22.40;99.90
30037;DHT22;36325;51.512;-0.382;2023-06-14T08:27:28;22.70;99.90
30037;DHT22;36325;51.512;-0.382;2023-06-14T08:29:56;23.00;99.90
30037;DHT22;36325;51.512;-0.382;2023-06-14T08:32:23;23.20;99.90
30037;DHT22;36325;51.512;-0.382;2023-06-14T08:34:51;23.40;99.90
30037;DHT22;36325;51.512;-0.382;2023-06-14T08:37:30;23.70;99.90
30037;DHT22;36325;51.512;-0.382;2023-06-14T08:39:57;24.00;99.90
30037;DHT22;36325;51.512;-0.382;2023-06-14T08:42:24;24.00;99.90
30037;DHT22;36325;51.512;-0.382;2023-06-14T08:44:58;23.40;99.90
30037;DHT22;36325;51.512;-0.382;2023-06-14T08:47:26;24.40;99.90
30037;DHT22;36325;51.512;-0.382;2023-06-14T08:49:57;24.60;99.90
30037;DHT22;36325;51.512;-0.382;2023-06-14T08:52:27;24.80;99.90
30037;DHT22;36325;51.512;-0.382;2023-06-14T08:54:58;24.90;99.90
30037;DHT22;36325;51.512;-0.382;2023-06-14T08:57:33;25.00;99.90
30037;DHT22;36325;51.512;-0.382;2023-06-14T09:00:05;25.20;99.90
30037;DHT22;36325;51.512;-0.382;2023-06-14T09:02:39;25.30;99.90
30037;DHT22;36325;51.512;-0.382;2023-06-14T09:05:10;25.60;99.90
30037;DHT22;36325;51.512;-0.382;2023-06-14T09:07:40;25.80;99.90
30037;DHT22;36325;51.512;-0.382;2023-06-14T09:10:10;25.90;99.90
30037;DHT22;36325;51.512;-0.382;2023-06-14T09:12:39;26.10;99.90
30037;DHT22;36325;51.512;-0.382;2023-06-14T09:15:07;26.20;99.90
30037;DHT22;36325;51.512;-0.382;2023-06-14T09:17:36;26.30;99.90
30037;DHT22;36325;51.512;-0.382;2023-06-14T09:20:04;26.80;99.90
30037;DHT22;36325;51.512;-0.382;2023-06-14T09:22:33;27.00;99.90
30037;DHT22;36325;51.512;-0.382;2023-06-14T09:25:01;27.20;99.90
30037;DHT22;36325;51.512;-0.382;2023-06-14T09:27:31;27.20;99.90
30037;DHT22;36325;51.512;-0.382;2023-06-14T09:30:04;27.40;99.90
30037;DHT22;36325;51.512;-0.382;2023-06-14T09:32:39;27.50;99.90
30037;DHT22;36325;51.512;-0.382;2023-06-14T09:35:07;27.70;99.90
30037;DHT22;36325;51.512;-0.382;2023-06-14T09:37:35;28.00;99.90
30037;DHT22;36325;51.512;-0.382;2023-06-14T09:40:06;28.10;99.90
30037;DHT22;36325;51.512;-0.382;2023-06-14T09:45:04;28.50;99.90
30037;DHT22;36325;51.512;-0.382;2023-06-14T09:47:31;28.60;99.90
30037;DHT22;36325;51.512;-0.382;2023-06-14T09:50:01;28.60;99.90
30037;DHT22;36325;51.512;-0.382;2023-06-14T09:52:28;28.80;99.90
30037;DHT22;36325;51.512;-0.382;2023-06-14T09:54:59;29.10;99.90
30037;DHT22;36325;51.512;-0.382;2023-06-14T09:57:27;29.20;99.90
30037;DHT22;36325;51.512;-0.382;2023-06-14T10:00:00;29.30;99.90
30037;DHT22;36325;51.512;-0.382;2023-06-14T10:02:38;29.60;99.90
30037;DHT22;36325;51.512;-0.382;2023-06-14T10:05:08;29.90;99.90
30037;DHT22;36325;51.512;-0.382;2023-06-14T10:07:53;30.00;99.90
30037;DHT22;36325;51.512;-0.382;2023-06-14T10:10:22;30.10;99.90
30037;DHT22;36325;51.512;-0.382;2023-06-14T10:12:50;30.40;99.90
30037;DHT22;36325;51.512;-0.382;2023-06-14T10:15:31;30.50;99.90
30037;DHT22;36325;51.512;-0.382;2023-06-14T10:18:01;30.60;99.90
30037;DHT22;36325;51.512;-0.382;2023-06-14T10:20:37;30.60;99.90
30037;DHT22;36325;51.512;-0.382;2023-06-14T10:23:21;30.80;99.90
30037;DHT22;36325;51.512;-0.382;2023-06-14T10:25:50;30.90;99.90
30037;DHT22;36325;51.512;-0.382;2023-06-14T10:28:24;31.00;99.90
30037;DHT22;36325;51.512;-0.382;2023-06-14T10:31:10;31.20;99.90
30037;DHT22;36325;51.512;-0.382;2023-06-14T10:36:28;31.60;99.90
30037;DHT22;36325;51.512;-0.382;2023-06-14T10:41:34;32.10;99.90
30037;DHT22;36325;51.512;-0.382;2023-06-14T10:44:32;32.20;99.90
30037;DHT22;36325;51.512;-0.382;2023-06-14T10:47:00;32.40;98.80
30037;DHT22;36325;51.512;-0.382;2023-06-14T10:49:45;32.60;98.80
30037;DHT22;36325;51.512;-0.382;2023-06-14T10:52:14;32.30;97.80
30037;DHT22;36325;51.512;-0.382;2023-06-14T10:55:01;32.40;98.00
30037;DHT22;36325;51.512;-0.382;2023-06-14T10:57:33;32.60;97.40
30037;DHT22;36325;51.512;-0.382;2023-06-14T11:00:15;32.60;96.90
30037;DHT22;36325;51.512;-0.382;2023-06-14T11:05:56;33.10;95.80
30037;DHT22;36325;51.512;-0.382;2023-06-14T11:11:13;33.40;94.50
30037;DHT22;36325;51.512;-0.382;2023-06-14T11:13:43;33.70;93.80
30037;DHT22;36325;51.512;-0.382;2023-06-14T11:16:17;34.10;93.70
30037;DHT22;36325;51.512;-0.382;2023-06-14T11:18:46;34.30;93.00
30037;DHT22;36325;51.512;-0.382;2023-06-14T11:21:17;34.40;92.00
30037;DHT22;36325;51.512;-0.382;2023-06-14T11:23:52;34.30;92.30
30037;DHT22;36325;51.512;-0.382;2023-06-14T11:26:27;34.40;92.40
30037;DHT22;36325;51.512;-0.382;2023-06-14T11:28:59;34.70;92.00
30037;DHT22;36325;51.512;-0.382;2023-06-14T11:31:28;34.80;92.10
30037;DHT22;36325;51.512;-0.382;2023-06-14T11:33:57;35.50;91.90
30037;DHT22;36325;51.512;-0.382;2023-06-14T11:36:29;35.80;90.60
30037;DHT22;36325;51.512;-0.382;2023-06-14T11:39:00;35.70;89.00
30037;DHT22;36325;51.512;-0.382;2023-06-14T11:41:34;35.80;87.80
30037;DHT22;36325;51.512;-0.382;2023-06-14T11:44:02;35.80;87.20
30037;DHT22;36325;51.512;-0.382;2023-06-14T11:46:30;36.30;87.00
30037;DHT22;36325;51.512;-0.382;2023-06-14T11:48:57;36.80;87.10
30037;DHT22;36325;51.512;-0.382;2023-06-14T11:51:25;37.20;85.20
30037;DHT22;36325;51.512;-0.382;2023-06-14T11:53:52;37.20;80.80
30037;DHT22;36325;51.512;-0.382;2023-06-14T11:56:20;37.10;80.40
30037;DHT22;36325;51.512;-0.382;2023-06-14T11:58:47;37.20;78.60
30037;DHT22;36325;51.512;-0.382;2023-06-14T12:01:16;37.30;78.20
30037;DHT22;36325;51.512;-0.382;2023-06-14T12:03:48;35.30;76.90
30037;DHT22;36325;51.512;-0.382;2023-06-14T12:06:16;37.50;76.90
30037;DHT22;36325;51.512;-0.382;2023-06-14T12:08:44;37.60;75.30
30037;DHT22;36325;51.512;-0.382;2023-06-14T12:11:13;38.50;73.70
30037;DHT22;36325;51.512;-0.382;2023-06-14T12:13:41;38.60;71.50
30037;DHT22;36325;51.512;-0.382;2023-06-14T12:16:12;38.40;68.40
30037;DHT22;36325;51.512;-0.382;2023-06-14T12:18:40;38.20;68.30
30037;DHT22;36325;51.512;-0.382;2023-06-14T12:21:09;38.50;68.00
30037;DHT22;36325;51.512;-0.382;2023-06-14T12:23:43;38.60;66.00
30037;DHT22;36325;51.512;-0.382;2023-06-14T12:26:16;39.40;64.50
30037;DHT22;36325;51.512;-0.382;2023-06-14T12:28:51;39.70;61.80
30037;DHT22;36325;51.512;-0.382;2023-06-14T12:31:18;39.70;59.50
30037;DHT22;36325;51.512;-0.382;2023-06-14T12:33:47;39.20;58.60
30037;DHT22;36325;51.512;-0.382;2023-06-14T12:36:16;39.80;59.00
30037;DHT22;36325;51.512;-0.382;2023-06-14T12:38:47;40.30;58.80
30037;DHT22;36325;51.512;-0.382;2023-06-14T12:41:15;40.90;58.70
30037;DHT22;36325;51.512;-0.382;2023-06-14T12:46:11;41.00;56.70
30037;DHT22;36325;51.512;-0.382;2023-06-14T12:48:44;41.30;57.50
30037;DHT22;36325;51.512;-0.382;2023-06-14T12:51:13;41.70;56.70
30037;DHT22;36325;51.512;-0.382;2023-06-14T12:53:40;41.40;55.50
30037;DHT22;36325;51.512;-0.382;2023-06-14T12:56:07;41.00;55.60
30037;DHT22;36325;51.512;-0.382;2023-06-14T12:58:34;41.40;55.80
30037;DHT22;36325;51.512;-0.382;2023-06-14T13:01:02;41.80;54.90
30037;DHT22;36325;51.512;-0.382;2023-06-14T13:03:29;41.30;54.70
30037;DHT22;36325;51.512;-0.382;2023-06-14T13:05:56;41.30;54.50
30037;DHT22;36325;51.512;-0.382;2023-06-14T13:08:24;41.50;53.80
30037;DHT22;36325;51.512;-0.382;2023-06-14T13:10:52;41.80;53.70
30037;DHT22;36325;51.512;-0.382;2023-06-14T13:13:19;42.30;52.70
30037;DHT22;36325;51.512;-0.382;2023-06-14T13:15:46;42.20;52.00
30037;DHT22;36325;51.512;-0.382;2023-06-14T13:20:43;41.90;51.40
30037;DHT22;36325;51.512;-0.382;2023-06-14T13:23:10;41.70;51.70
30037;DHT22;36325;51.512;-0.382;2023-06-14T13:25:38;42.20;51.50
30037;DHT22;36325;51.512;-0.382;2023-06-14T13:28:05;42.60;51.00
30037;DHT22;36325;51.512;-0.382;2023-06-14T13:30:33;42.70;50.80
30037;DHT22;36325;51.512;-0.382;2023-06-14T13:33:00;43.00;51.00
30037;DHT22;36325;51.512;-0.382;2023-06-14T13:35:29;43.70;51.40
30037;DHT22;36325;51.512;-0.382;2023-06-14T13:37:58;43.40;50.20
30037;DHT22;36325;51.512;-0.382;2023-06-14T13:40:26;41.90;50.10
30037;DHT22;36325;51.512;-0.382;2023-06-14T13:42:53;40.50;50.60
30037;DHT22;36325;51.512;-0.382;2023-06-14T13:47:54;37.80;51.10
30037;DHT22;36325;51.512;-0.382;2023-06-14T13:50:22;36.60;52.30
30037;DHT22;36325;51.512;-0.382;2023-06-14T13:52:49;37.00;52.70
30037;DHT22;36325;51.512;-0.382;2023-06-14T13:55:16;38.40;52.50
30037;DHT22;36325;51.512;-0.382;2023-06-14T13:57:43;39.70;52.00
30037;DHT22;36325;51.512;-0.382;2023-06-14T14:00:12;40.70;51.70
30037;DHT22;36325;51.512;-0.382;2023-06-14T14:02:41;41.10;51.50
30037;DHT22;36325;51.512;-0.382;2023-06-14T14:05:09;41.10;51.40
30037;DHT22;36325;51.512;-0.382;2023-06-14T14:07:36;40.20;51.70
30037;DHT22;36325;51.512;-0.382;2023-06-14T14:10:05;39.70;51.60
30037;DHT22;36325;51.512;-0.382;2023-06-14T14:12:33;38.80;52.00
30037;DHT22;36325;51.512;-0.382;2023-06-14T14:15:00;38.00;52.80
30037;DHT22;36325;51.512;-0.382;2023-06-14T14:17:27;37.90;52.30
30037;DHT22;36325;51.512;-0.382;2023-06-14T14:19:55;38.90;51.80
30037;DHT22;36325;51.512;-0.382;2023-06-14T14:22:22;40.20;51.70
30037;DHT22;36325;51.512;-0.382;2023-06-14T14:24:49;40.80;51.50
30037;DHT22;36325;51.512;-0.382;2023-06-14T14:27:17;41.00;52.10
30037;DHT22;36325;51.512;-0.382;2023-06-14T14:29:44;41.00;51.30
30037;DHT22;36325;51.512;-0.382;2023-06-14T14:32:11;40.70;51.60
30037;DHT22;36325;51.512;-0.382;2023-06-14T14:34:41;39.60;52.20
30037;DHT22;36325;51.512;-0.382;2023-06-14T14:37:08;38.40;52.40
30037;DHT22;36325;51.512;-0.382;2023-06-14T14:39:37;36.30;53.10
30037;DHT22;36325;51.512;-0.382;2023-06-14T14:42:04;36.20;53.60
30037;DHT22;36325;51.512;-0.382;2023-06-14T14:44:32;37.10;53.50
30037;DHT22;36325;51.512;-0.382;2023-06-14T14:46:59;38.30;53.40
30037;DHT22;36325;51.512;-0.382;2023-06-14T14:49:26;39.30;53.00
30037;DHT22;36325;51.512;-0.382;2023-06-14T14:51:54;39.50;52.70
30037;DHT22;36325;51.512;-0.382;2023-06-14T14:54:26;39.90;52.40
30037;DHT22;36325;51.512;-0.382;2023-06-14T14:56:56;39.70;52.30
30037;DHT22;36325;51.512;-0.382;2023-06-14T14:59:23;38.50;52.70
30037;DHT22;36325;51.512;-0.382;2023-06-14T15:01:50;37.30;53.60
30037;DHT22;36325;51.512;-0.382;2023-06-14T15:04:17;36.10;54.30
30037;DHT22;36325;51.512;-0.382;2023-06-14T15:06:44;35.40;55.00
30037;DHT22;36325;51.512;-0.382;2023-06-14T15:09:12;35.10;55.80
30037;DHT22;36325;51.512;-0.382;2023-06-14T15:11:39;33.90;56.40
30037;DHT22;36325;51.512;-0.382;2023-06-14T15:14:06;33.90;57.00
30037;DHT22;36325;51.512;-0.382;2023-06-14T15:16:33;33.50;57.20
30037;DHT22;36325;51.512;-0.382;2023-06-14T15:19:00;33.50;57.70
30037;DHT22;36325;51.512;-0.382;2023-06-14T15:21:27;33.30;58.00
30037;DHT22;36325;51.512;-0.382;2023-06-14T15:23:55;34.30;57.60
30037;DHT22;36325;51.512;-0.382;2023-06-14T15:26:22;35.20;57.20
30037;DHT22;36325;51.512;-0.382;2023-06-14T15:28:51;36.40;57.00
30037;DHT22;36325;51.512;-0.382;2023-06-14T15:31:18;37.40;56.20
30037;DHT22;36325;51.512;-0.382;2023-06-14T15:33:45;38.30;55.40
30037;DHT22;36325;51.512;-0.382;2023-06-14T15:36:12;38.80;54.50
30037;DHT22;36325;51.512;-0.382;2023-06-14T15:38:40;39.00;54.10
30037;DHT22;36325;51.512;-0.382;2023-06-14T15:41:07;38.70;53.90
30037;DHT22;36325;51.512;-0.382;2023-06-14T15:43:34;37.70;54.20
30037;DHT22;36325;51.512;-0.382;2023-06-14T15:46:01;36.70;54.90
30037;DHT22;36325;51.512;-0.382;2023-06-14T15:48:29;35.50;56.20
30037;DHT22;36325;51.512;-0.382;2023-06-14T15:50:56;34.40;57.50
30037;DHT22;36325;51.512;-0.382;2023-06-14T15:55:50;33.70;57.70
30037;DHT22;36325;51.512;-0.382;2023-06-14T15:58:17;33.70;58.90
30037;DHT22;36325;51.512;-0.382;2023-06-14T16:00:45;33.10;58.80
30037;DHT22;36325;51.512;-0.382;2023-06-14T16:03:12;33.20;59.00
30037;DHT22;36325;51.512;-0.382;2023-06-14T16:05:39;33.50;58.80
30037;DHT22;36325;51.512;-0.382;2023-06-14T16:08:07;33.90;58.70
30037;DHT22;36325;51.512;-0.382;2023-06-14T16:10:34;33.90;58.60
30037;DHT22;36325;51.512;-0.382;2023-06-14T16:13:02;33.50;58.80
30037;DHT22;36325;51.512;-0.382;2023-06-14T16:15:29;32.80;59.00
30037;DHT22;36325;51.512;-0.382;2023-06-14T16:17:56;32.50;59.80
30037;DHT22;36325;51.512;-0.382;2023-06-14T16:20:23;32.90;58.80
30037;DHT22;36325;51.512;-0.382;2023-06-14T16:22:51;33.30;58.40
30037;DHT22;36325;51.512;-0.382;2023-06-14T16:25:18;33.80;57.90